Time;durP1;ratioP1;P1;durP2;ratioP2;P2;SDS_P1;SDS_P2;PMS_P1;PMS_P2;Temp;Humidity;BMP_temperature;BMP_pressure;BME280_temperature;BME280_humidity;BME280_pressure;Samples;Min_cycle;Max_cycle;Signal;HPM_P1;HPM_P2
2022/02/14 00:00:28;;;;;;;7.67;5.30;;;;;;;4.19;46.05;100128.28;4947199;28;96800;-79
2022/02/14 00:02:53;;;;;;;10.33;4.73;;;;;;;4.29;45.56;100137.69;4932932;28;100698;-79
2022/02/14 00:05:19;;;;;;;13.83;5.03;;;;;;;4.30;45.26;100139.44;4934955;28;101319;-77
2022/02/14 00:07:44;;;;;;;8.73;4.73;;;;;;;4.38;45.14;100122.88;4931370;28;97712;-78
2022/02/14 00:10:10;;;;;;;9.07;5.70;;;;;;;4.25;45.06;100127.38;4932316;28;97428;-79
2022/02/14 00:12:39;;;;;;;8.73;4.23;;;;;;;4.35;44.98;100120.31;4916176;28;100840;-79
2022/02/14 00:15:07;;;;;;;9.77;4.73;;;;;;;4.40;44.99;100126.31;4931960;28;98207;-79
2022/02/14 00:17:33;;;;;;;8.03;5.00;;;;;;;4.39;44.50;100115.03;4932742;28;96733;-80
2022/02/14 00:19:58;;;;;;;7.43;4.37;;;;;;;4.37;44.48;100131.56;4935729;28;96988;-82
2022/02/14 00:22:24;;;;;;;7.77;4.70;;;;;;;4.52;44.58;100128.75;4932910;28;97869;-79
2022/02/14 00:24:50;;;;;;;8.67;4.87;;;;;;;4.46;44.47;100121.91;4917051;28;101373;-78
2022/02/14 00:27:16;;;;;;;9.70;4.80;;;;;;;4.37;44.69;100109.03;4932126;28;96659;-79
2022/02/14 00:29:43;;;;;;;8.53;4.97;;;;;;;4.44;44.95;100130.59;4889670;28;97343;-78
2022/02/14 00:32:09;;;;;;;10.37;5.37;;;;;;;4.32;44.97;100113.41;4923986;28;101358;-82
2022/02/14 00:34:35;;;;;;;10.27;5.73;;;;;;;4.43;44.57;100139.28;4931555;28;101190;-77
2022/02/14 00:37:00;;;;;;;7.50;4.03;;;;;;;4.40;44.83;100119.38;4935253;28;97126;-79
2022/02/14 00:39:26;;;;;;;7.17;4.43;;;;;;;4.46;45.34;100121.91;4933084;28;97212;-78
2022/02/14 00:41:53;;;;;;;11.83;5.17;;;;;;;4.34;45.03;100119.47;4915884;28;97933;-80
2022/02/14 00:44:19;;;;;;;14.03;5.33;;;;;;;4.41;45.68;100123.69;4929266;28;101285;-79
2022/02/14 00:46:45;;;;;;;8.70;5.27;;;;;;;4.41;45.60;100125.44;4932699;28;96678;-79
2022/02/14 00:49:10;;;;;;;7.43;5.13;;;;;;;4.46;45.69;100121.03;4935289;28;96852;-80
2022/02/14 00:51:36;;;;;;;9.03;5.37;;;;;;;4.30;46.29;100110.84;4951363;28;98469;-80
2022/02/14 00:54:02;;;;;;;13.93;5.87;;;;;;;4.35;46.25;100120.31;4934857;28;101633;-80
2022/02/14 00:56:28;;;;;;;9.47;5.20;;;;;;;4.38;46.80;100102.94;4935717;28;96919;-79
2022/02/14 00:58:53;;;;;;;9.70;5.47;;;;;;;4.39;47.02;100124.59;4919151;28;96936;-81
2022/02/14 01:01:19;;;;;;;12.07;5.40;;;;;;;4.43;47.07;100123.69;4931910;28;101068;-80
2022/02/14 01:03:45;;;;;;;7.50;5.67;;;;;;;4.30;47.31;100108.25;4924191;28;101069;-78
2022/02/14 01:06:11;;;;;;;12.93;5.40;;;;;;;4.20;47.88;100111.81;4931809;28;96725;-78
2022/02/14 01:08:37;;;;;;;9.97;5.63;;;;;;;4.09;48.14;100127.50;4916134;28;96917;-80
2022/02/14 01:11:02;;;;;;;7.07;4.97;;;;;;;4.04;47.83;100103.34;4914924;28;101494;-80
2022/02/14 01:13:28;;;;;;;9.23;5.63;;;;;;;4.01;47.88;100100.75;4915970;28;101411;-78
2022/02/14 01:15:53;;;;;;;8.13;5.30;;;;;;;4.00;47.67;100113.75;4931659;28;96827;-83
2022/02/14 01:18:19;;;;;;;9.57;6.27;;;;;;;3.77;47.88;100080.25;4932248;28;96920;-77
2022/02/14 01:20:44;;;;;;;10.10;5.60;;;;;;;3.95;48.18;100097.38;4915710;28;101328;-79
2022/02/14 01:23:11;;;;;;;10.17;6.80;;;;;;;3.93;48.40;100100.00;4915422;28;97812;-79
2022/02/14 01:25:36;;;;;;;11.30;5.70;;;;;;;3.82;48.61;100084.50;4916227;28;96750;-78
2022/02/14 01:28:02;;;;;;;8.53;5.23;;;;;;;3.88;48.61;100080.13;4915615;28;96955;-78
2022/02/14 01:30:27;;;;;;;9.87;5.40;;;;;;;3.87;48.40;100074.09;4931734;28;97883;-80
2022/02/14 01:32:53;;;;;;;9.90;5.33;;;;;;;3.88;48.59;100073.19;4916177;28;97848;-79
2022/02/14 01:35:19;;;;;;;9.83;6.17;;;;;;;3.84;48.85;100069.78;4899481;28;96672;-80
2022/02/14 01:37:44;;;;;;;10.70;5.53;;;;;;;3.74;49.01;100073.34;4932036;28;96946;-81
2022/02/14 01:40:12;;;;;;;11.33;6.17;;;;;;;3.65;49.17;100067.38;4927200;28;101223;-80
2022/02/14 01:42:37;;;;;;;11.73;6.20;;;;;;;3.68;49.32;100083.78;4915457;28;101312;-80
2022/02/14 01:45:04;;;;;;;11.47;6.43;;;;;;;3.65;49.71;100064.78;4898530;28;96825;-80
2022/02/14 01:47:30;;;;;;;10.40;5.90;;;;;;;3.57;49.72;100077.84;4916489;28;96802;-80
2022/02/14 01:49:56;;;;;;;14.93;7.30;;;;;;;3.48;49.79;100049.38;4915555;28;101353;-78
2022/02/14 01:52:22;;;;;;;9.47;6.03;;;;;;;3.42;49.93;100045.09;4914920;28;101299;-81
2022/02/14 01:54:49;;;;;;;11.40;6.27;;;;;;;3.35;50.40;100072.84;4931640;28;96717;-80
2022/02/14 01:57:16;;;;;;;11.90;6.80;;;;;;;3.09;50.99;100049.72;4931918;28;96812;-82
2022/02/14 01:59:43;;;;;;;14.23;6.80;;;;;;;3.02;51.32;100053.22;4899316;28;101246;-81
2022/02/14 02:02:09;;;;;;;13.87;6.83;;;;;;;3.02;51.71;100058.38;4898651;28;101239;-81
2022/02/14 02:04:35;;;;;;;12.80;7.03;;;;;;;3.09;51.29;100057.50;4914899;28;96777;-81
2022/02/14 02:07:02;;;;;;;13.80;7.63;;;;;;;3.11;51.07;100045.38;4904305;28;96965;-82
2022/02/14 02:09:28;;;;;;;18.40;7.77;;;;;;;3.05;50.75;100040.22;4934139;28;101510;-82
2022/02/14 02:14:38;;;;;;;14.87;7.50;;;;;;;3.02;51.13;100039.38;4937072;28;97788;-81
2022/02/14 02:17:03;;;;;;;15.73;7.70;;;;;;;2.98;51.20;100030.78;4950096;28;97036;-81
2022/02/14 02:19:29;;;;;;;16.07;8.00;;;;;;;3.07;50.98;100038.47;4934255;28;101520;-81
2022/02/14 02:21:55;;;;;;;14.83;7.77;;;;;;;2.95;51.31;100042.03;4931352;28;101308;-82
2022/02/14 02:24:22;;;;;;;12.83;7.40;;;;;;;2.92;51.12;100029.09;4924604;28;96673;-83
2022/02/14 02:27:02;;;;;;;19.13;8.20;;;;;;;3.09;50.98;100033.28;4931854;28;96875;-82
2022/02/14 02:29:28;;;;;;;13.17;7.20;;;;;;;3.11;51.21;100034.13;4933781;28;98175;-80
2022/02/14 02:31:55;;;;;;;13.30;7.47;;;;;;;3.13;51.12;100028.06;4934058;28;101229;-80
2022/02/14 02:34:20;;;;;;;15.30;7.93;;;;;;;3.08;51.17;100026.38;4918028;28;96622;-81
2022/02/14 02:36:57;;;;;;;11.93;6.87;;;;;;;3.26;50.85;100026.22;4918179;28;96825;-82
2022/02/14 02:39:24;;;;;;;9.07;5.73;;;;;;;3.27;50.42;100014.97;4933580;28;98108;-81
2022/02/14 02:41:50;;;;;;;13.57;6.80;;;;;;;3.32;50.39;100022.72;4933492;28;101427;-80
2022/02/14 02:44:16;;;;;;;11.43;6.67;;;;;;;3.32;50.30;100023.56;4949955;28;97025;-79
2022/02/14 02:46:43;;;;;;;13.80;6.50;;;;;;;3.37;50.76;100016.63;4931131;28;97061;-80
2022/02/14 02:49:13;;;;;;;13.37;7.47;;;;;;;3.47;50.65;100014.78;4930141;28;97734;-80
2022/02/14 02:51:40;;;;;;;11.90;7.03;;;;;;;3.43;50.64;100010.47;4914497;28;101236;-80
2022/02/14 02:54:06;;;;;;;13.17;7.00;;;;;;;3.17;51.05;99983.06;4897866;28;96624;-80
2022/02/14 02:56:36;;;;;;;13.63;6.90;;;;;;;3.33;51.08;100020.09;4929101;28;96943;-80
2022/02/14 02:59:02;;;;;;;13.47;6.77;;;;;;;3.45;50.96;100002.69;4933335;28;101677;-83
2022/02/14 03:01:28;;;;;;;11.90;6.20;;;;;;;3.54;50.98;99993.06;4933376;28;101866;-80
2022/02/14 03:03:53;;;;;;;13.53;7.33;;;;;;;3.58;50.30;99979.19;4930665;28;96859;-81
2022/02/14 03:06:20;;;;;;;10.00;6.40;;;;;;;3.70;50.30;99996.38;4894900;28;97388;-81
2022/02/14 03:08:46;;;;;;;12.00;6.03;;;;;;;3.69;50.17;99968.66;4920224;28;101316;-80
2022/02/14 03:11:11;;;;;;;10.20;6.30;;;;;;;3.82;50.32;99979.78;4920096;28;101736;-80
2022/02/14 03:13:37;;;;;;;18.03;7.27;;;;;;;3.62;50.21;99949.72;4937166;28;97062;-80
2022/02/14 03:16:03;;;;;;;11.27;6.47;;;;;;;3.81;50.00;99981.53;4904274;28;96837;-84
2022/02/14 03:18:29;;;;;;;11.97;6.83;;;;;;;3.89;49.87;99957.19;4935924;28;101229;-81
2022/02/14 03:20:55;;;;;;;9.43;5.83;;;;;;;3.60;50.12;99950.63;4934652;28;100333;-80
2022/02/14 03:23:20;;;;;;;10.33;6.53;;;;;;;3.84;49.91;99973.72;4933180;28;96653;-81
2022/02/14 03:25:46;;;;;;;14.67;7.13;;;;;;;3.89;49.89;99973.63;4909785;28;96836;-81
2022/02/14 03:28:12;;;;;;;11.93;7.10;;;;;;;4.00;49.55;99976.97;4932551;28;101184;-73
2022/02/14 03:30:37;;;;;;;10.47;6.90;;;;;;;4.15;49.40;99954.25;4932091;28;100876;-74
2022/02/14 03:33:03;;;;;;;12.63;6.33;;;;;;;4.08;49.42;99975.13;4936652;28;96722;-74
2022/02/14 03:35:28;;;;;;;14.83;7.10;;;;;;;4.16;49.25;99964.66;4936317;28;96994;-73
2022/02/14 03:37:56;;;;;;;10.10;6.53;;;;;;;4.11;48.91;99960.38;4932426;28;100949;-73
2022/02/14 03:40:22;;;;;;;12.63;6.90;;;;;;;4.09;49.04;99937.88;4913415;28;101803;-73
2022/02/14 03:42:47;;;;;;;14.03;6.80;;;;;;;4.19;49.44;99962.00;4935918;28;96617;-74
2022/02/14 03:45:13;;;;;;;9.90;6.77;;;;;;;4.14;49.10;99956.00;4932159;28;96840;-74
2022/02/14 03:47:39;;;;;;;11.73;7.30;;;;;;;4.17;49.16;99962.91;4932768;28;98512;-74
2022/02/14 03:50:06;;;;;;;11.73;6.30;;;;;;;4.16;49.00;99971.56;4927194;28;101560;-76
2022/02/14 03:52:31;;;;;;;14.47;7.47;;;;;;;4.12;49.44;99967.28;4919385;28;96758;-73
2022/02/14 03:54:57;;;;;;;15.07;7.90;;;;;;;4.10;49.59;99956.91;4936349;28;96758;-74
2022/02/14 03:57:22;;;;;;;13.83;7.27;;;;;;;4.04;49.37;99963.06;4932016;28;100606;-74
2022/02/14 03:59:48;;;;;;;11.23;7.30;;;;;;;4.02;49.42;99944.03;4926089;28;97632;-74
2022/02/14 04:02:13;;;;;;;12.07;7.30;;;;;;;4.02;49.45;99954.44;4952021;28;96792;-74
2022/02/14 04:04:39;;;;;;;14.40;8.57;;;;;;;4.03;49.37;99995.09;4936132;28;96803;-74
2022/02/14 04:07:05;;;;;;;12.27;6.90;;;;;;;4.00;49.59;99961.38;4933798;28;97509;-75
2022/02/14 04:09:30;;;;;;;17.77;7.73;;;;;;;3.95;49.70;99957.97;4932146;28;97825;-73
2022/02/14 04:11:56;;;;;;;17.23;8.33;;;;;;;3.93;49.81;99943.31;4917189;28;96685;-74
2022/02/14 04:14:21;;;;;;;15.10;7.53;;;;;;;3.92;49.72;99955.41;4933282;28;97120;-74
2022/02/14 04:16:47;;;;;;;14.97;6.60;;;;;;;3.88;49.91;99940.75;4906348;28;101188;-74
2022/02/14 04:19:12;;;;;;;11.17;6.93;;;;;;;3.84;49.55;99932.16;4932848;28;101232;-74
2022/02/14 04:21:38;;;;;;;12.90;7.03;;;;;;;3.94;49.45;99948.47;4915841;28;97233;-75
2022/02/14 04:24:04;;;;;;;11.63;7.70;;;;;;;3.95;49.99;99941.53;4919614;28;96793;-73
2022/02/14 04:26:29;;;;;;;11.63;7.17;;;;;;;3.92;50.19;99962.34;4917794;28;101503;-73
2022/02/14 04:28:55;;;;;;;9.03;6.63;;;;;;;3.80;50.03;99937.41;4934721;28;101965;-74
2022/02/14 04:31:20;;;;;;;12.83;8.03;;;;;;;3.92;49.79;99944.16;4932088;28;97089;-74
2022/02/14 04:33:46;;;;;;;11.73;7.40;;;;;;;3.82;50.14;99931.31;4908755;28;96911;-75
2022/02/14 04:36:12;;;;;;;16.53;7.83;;;;;;;3.62;50.28;99915.13;4931047;28;101175;-75
2022/02/14 04:38:38;;;;;;;17.23;9.03;;;;;;;3.74;50.75;99943.53;4946822;28;101079;-74
2022/02/14 04:41:03;;;;;;;19.50;8.70;;;;;;;3.66;50.62;99934.09;4935162;28;96652;-74
2022/02/14 04:43:29;;;;;;;16.93;8.57;;;;;;;3.77;50.75;99927.91;4929451;28;98063;-92
2022/02/14 04:45:55;;;;;;;13.27;7.37;;;;;;;3.74;50.49;99934.88;4948590;28;99180;-94
2022/02/14 04:48:20;;;;;;;14.50;7.40;;;;;;;3.61;50.91;99929.84;4972943;28;97877;-93
2022/02/14 04:50:46;;;;;;;11.50;7.63;;;;;;;3.75;50.79;99927.09;4949064;28;96613;-91
2022/02/14 04:53:12;;;;;;;14.70;8.40;;;;;;;3.74;50.72;99925.34;4948279;28;97068;-90
2022/02/14 04:55:37;;;;;;;17.10;8.27;;;;;;;3.78;50.84;99928.75;4943303;28;100266;-91
2022/02/14 04:58:03;;;;;;;13.53;8.13;;;;;;;3.74;50.92;99947.88;4947135;28;96811;-93
2022/02/14 05:00:30;;;;;;;17.60;8.73;;;;;;;3.70;50.86;99920.22;4956708;28;96733;-91
2022/02/14 05:02:57;;;;;;;15.50;8.53;;;;;;;3.53;50.85;99921.28;4955598;28;96728;-81
2022/02/14 05:05:22;;;;;;;17.83;8.63;;;;;;;3.53;51.31;99903.13;4936933;28;97884;-81
2022/02/14 05:07:50;;;;;;;14.53;8.13;;;;;;;3.52;51.49;99945.53;4935334;28;97967;-80
2022/02/14 05:10:17;;;;;;;18.30;8.57;;;;;;;3.48;51.48;99911.81;4940978;28;97325;-89
2022/02/14 05:12:42;;;;;;;13.50;8.03;;;;;;;3.54;51.45;99915.19;4936306;28;96868;-89
